Latest Weather Observations for Cooma Airport

IDN60801

Issued at 11:32 pm EDT Thursday 11 February 2016 (issued every 30 minutes, with the page automatically refreshed every 10 minutes)

About weather observations | Map of weather stations | Latest weather observations for NSW | Other Formats
Station Details ID: 070217 Name: COOMA AIRPORT AWS Lat: -36.29 Lon: 148.97 Height: 930.0 m
Data from the previous 72 hours. | See also: Recent months at Cooma Airport
Date/Time
EDT
Temp
°C
App
Temp
°C
Dew
Point
Rel
Hum
%
Delta-T
°C
Wind Press
QNH
hPa
Press
MSL
hPa
Rain
since 9 am
mm
Dir
 
Spd
km/h
Gust
km/h
Spd
kts
Gust
kts
11/11:30pm 14.7 14.1 14.5 99 0.1 NNE 11 13 6 7 1019.7 1015.8 2.6
11/11:18pm 15.2 15.7 15.0 99 0.1 NE 6 9 3 5 1020.0 1016.2 2.6
11/11:00pm 14.5 15.5 14.3 99 0.1 SSE 2 9 1 5 1020.0 1016.2 2.6
11/10:58pm 14.5 15.9 14.3 99 0.1 CALM 0 0 0 0 1020.0 1016.2 2.6
11/10:30pm 15.0 15.4 14.8 99 0.1 NE 6 11 3 6 1019.8 1015.9 2.6
11/10:00pm 15.4 15.8 15.2 99 0.1 N 7 11 4 6 1019.8 1015.9 2.6
11/09:30pm 16.1 15.8 15.5 96 0.4 ENE 11 17 6 9 1019.5 1015.6 2.6
11/09:00pm 16.3 14.5 15.5 95 0.5 NE 19 22 10 12 1019.3 1015.4 2.6
11/08:30pm 16.4 14.9 16.2 99 0.1 NE 19 22 10 12 1018.6 1014.7 2.6
11/08:00pm 16.4 15.6 16.2 99 0.1 NE 15 19 8 10 1018.1 1014.2 2.6
11/07:30pm 17.5 16.2 16.7 95 0.5 NE 19 24 10 13 1017.8 1013.8 2.6
11/07:00pm 17.8 17.0 17.0 95 0.5 NE 17 22 9 12 1017.5 1013.6 2.6
11/06:30pm 17.0 15.9 16.4 96 0.4 N 17 22 9 12 1017.9 1013.9 2.6
11/06:22pm 16.9 15.4 16.3 96 0.4 NNE 19 26 10 14 1017.6 1013.7 2.6
11/06:03pm 17.2 14.5 15.7 91 0.9 NE 24 32 13 17 1017.3 1013.4 1.8
11/06:00pm 17.5 14.8 15.5 88 1.2 ENE 24 32 13 17 1017.2 1013.3 1.2
11/05:30pm 19.1 15.3 14.6 75 2.7 ENE 28 37 15 20 1017.0 1013.0 0.0
11/05:00pm 20.5 16.8 15.1 71 3.3 NE 28 35 15 19 1016.7 1012.7 0.0
11/04:30pm 20.8 17.4 14.7 68 3.7 NNE 26 35 14 19 1016.3 1012.4 0.0
11/04:00pm 23.0 21.6 15.6 63 4.6 ENE 17 28 9 15 1015.9 1011.9 0.0
11/03:30pm 23.1 22.1 13.3 54 5.9 E 11 17 6 9 1016.4 1012.5 0.0
11/03:00pm 24.0 22.0 12.6 49 6.8 E 15 20 8 11 1016.4 1012.5 0.0
11/02:30pm 23.6 21.8 13.2 52 6.3 SE 15 22 8 12 1017.0 1013.0 0.0
11/02:00pm 23.4 22.5 13.6 54 5.9 E 11 20 6 11 1017.5 1013.6 0.0
11/01:30pm 23.5 23.5 15.3 60 5.1 NNE 9 15 5 8 1017.8 1013.8 0.0
11/01:00pm 22.9 22.3 14.7 60 5.0 E 11 19 6 10 1018.1 1014.2 0.0
11/12:30pm 21.9 20.3 14.0 61 4.8 ENE 15 20 8 11 1018.3 1014.4 0.0
11/12:00pm 21.9 21.7 14.8 64 4.4 ENE 9 22 5 12 1018.5 1014.6 0.0
11/11:30am 21.3 21.4 15.4 69 3.7 ESE 9 15 5 8 1018.6 1014.7 0.0
11/11:00am 20.3 21.2 15.1 72 3.2 NE 4 13 2 7 1018.6 1014.7 0.0
11/10:30am 19.3 20.2 13.9 71 3.2 W 2 7 1 4 1018.7 1014.8 0.0
11/10:00am 18.4 18.3 13.3 72 3.0 NNW 6 9 3 5 1018.8 1014.9 0.0
11/09:30am 17.9 17.4 13.8 77 2.4 NNE 9 13 5 7 1018.8 1014.9 0.0
11/09:10am 17.5 17.6 14.0 80 2.1 NE 6 11 3 6 1019.0 1015.0 0.0
11/09:00am 17.3 18.2 14.0 81 2.0 NNE 2 7 1 4 1019.0 1015.0 0.2
11/08:30am 16.7 18.2 14.7 88 1.2 CALM 0 0 0 0 1018.8 1014.9 0.2
11/08:00am 16.4 18.2 15.4 94 0.6 CALM 0 0 0 0 1018.6 1014.7 0.2
11/07:30am 16.1 18.0 15.8 98 0.2 CALM 0 0 0 0 1018.4 1014.5 0.2
11/07:00am 15.9 17.8 15.7 99 0.1 CALM 0 0 0 0 1018.1 1014.2 0.2
11/06:30am 15.7 17.1 15.5 99 0.1 SW 2 7 1 4 1017.8 1013.8 0.2
11/06:00am 15.9 17.8 15.7 99 0.1 CALM 0 0 0 0 1017.4 1013.5 0.2
11/05:30am 15.8 17.5 15.3 97 0.3 CALM 0 0 0 0 1017.2 1013.3 0.2
11/05:00am 15.6 17.4 15.4 99 0.1 CALM 0 9 0 5 1017.0 1013.0 0.2
11/04:30am 15.0 16.2 15.0 100 0.0 W 2 6 1 3 1017.0 1013.0 0.2
11/04:07am 14.1 14.1 14.1 100 0.0 WSW 7 11 4 6 1016.9 1012.9 0.2
11/04:06am 14.1 13.7 14.1 100 0.0 WSW 9 11 5 6 1016.9 1012.9 0.2
11/04:00am 13.9 13.4 13.7 99 0.1 WSW 9 13 5 7 1016.9 1012.9 0.2
11/03:42am 13.7 14.7 13.1 96 0.3 CALM 0 0 0 0 1016.8 1012.8 0.2
11/03:30am 13.8 14.6 12.7 93 0.6 CALM 0 0 0 0 1016.8 1012.8 0.2
11/03:00am 15.1 15.2 14.0 93 0.6 NE 6 7 3 4 1017.1 1013.2 0.2
11/02:30am 16.4 16.2 14.8 90 1.0 ENE 9 9 5 5 1017.3 1013.4 0.2
11/02:19am 16.6 17.9 15.1 91 0.9 NE 2 9 1 5 1017.4 1013.5 0.2
11/02:00am 16.5 18.3 15.5 94 0.6 CALM 0 0 0 0 1017.5 1013.6 0.2
11/01:30am 16.6 18.8 16.4 99 0.1 CALM 0 0 0 0 1017.9 1013.9 0.2
11/01:15am 16.6 18.8 16.4 99 0.1 CALM 0 0 0 0 1018.0 1014.0 0.2
11/01:00am 16.5 18.5 16.0 97 0.3 CALM 0 0 0 0 1018.1 1014.2 0.2
11/12:30am 16.5 17.5 16.3 99 0.1 SW 6 9 3 5 1018.4 1014.5 0.2
11/12:23am 16.5 17.3 16.3 99 0.1 SW 7 9 4 5 1018.4 1014.5 0.2
11/12:10am 16.4 16.8 16.2 99 0.1 SW 9 11 5 6 1018.5 1014.6 0.2
11/12:05am 16.4 16.8 16.2 99 0.1 SW 9 11 5 6 1018.5 1014.6 0.2
11/12:00am 16.4 16.4 16.2 99 0.1 SW 11 13 6 7 1018.5 1014.6 0.2
 
Date/Time
EDT
Temp
°C
App
Temp
°C
Dew
Point
Rel
Hum
%
Delta-T
°C
Wind Press
QNH
hPa
Press
MSL
hPa
Rain
since 9 am
mm
Dir
 
Spd
km/h
Gust
km/h
Spd
kts
Gust
kts
10/11:54pm 16.4 16.8 16.2 99 0.1 SW 9 13 5 7 1018.6 1014.7 0.2
10/11:30pm 16.7 17.1 16.2 97 0.3 SSW 9 13 5 7 1018.5 1014.6 0.2
10/11:00pm 16.5 17.7 15.0 91 0.9 SSE 2 9 1 5 1018.2 1014.3 0.2
10/10:30pm 17.3 17.8 14.9 86 1.5 ESE 6 9 3 5 1018.6 1014.7 0.2
10/10:00pm 17.9 17.9 15.2 84 1.6 SSW 9 13 5 7 1019.1 1015.2 0.2
10/09:30pm 18.1 18.1 15.2 83 1.8 SE 9 15 5 8 1018.4 1014.5 0.2
10/09:00pm 17.9 15.6 14.6 81 2.0 NE 20 28 11 15 1017.2 1013.3 0.2
10/08:30pm 18.7 16.7 15.0 79 2.3 NE 19 26 10 14 1017.0 1013.0 0.2
10/08:00pm 20.1 17.6 15.1 73 3.1 NE 22 30 12 16 1016.4 1012.5 0.2
10/07:30pm 20.6 18.3 15.8 74 3.0 E 22 33 12 18 1016.1 1012.2 0.2
10/07:00pm 21.9 19.7 16.0 69 3.7 E 22 30 12 16 1015.5 1011.5 0.2
10/06:30pm 24.4 22.8 16.4 61 5.1 E 20 28 11 15 1015.0 1011.0 0.2
10/06:00pm 27.0 23.6 5.9 26 11.4 SW 13 17 7 9 1014.5 1010.5 0.2
10/05:30pm 27.9 25.2 5.5 24 12.1 SW 9 13 5 7 1014.4 1010.4 0.2
10/05:00pm 28.4 24.9 5.3 23 12.5 WSW 13 22 7 12 1014.6 1010.6 0.2
10/04:30pm 28.3 23.6 3.2 20 13.1 WSW 17 22 9 12 1014.5 1010.5 0.2
10/04:00pm 28.4 24.1 5.3 23 12.5 W 17 22 9 12 1014.7 1010.7 0.2
10/03:30pm 28.3 22.3 0.9 17 13.7 WSW 22 35 12 19 1014.9 1010.9 0.2
10/03:00pm 29.0 26.9 8.1 27 11.9 W 9 24 5 13 1015.0 1011.0 0.2
10/02:30pm 27.9 23.5 6.6 26 11.7 SW 19 26 10 14 1015.3 1011.4 0.2
10/02:00pm 28.2 25.5 10.4 33 10.5 SW 15 26 8 14 1015.6 1011.6 0.2
10/01:30pm 27.7 25.0 10.4 34 10.1 S 15 24 8 13 1015.7 1011.7 0.2
10/01:00pm 27.3 24.8 8.2 30 10.8 WSW 11 22 6 12 1015.8 1011.8 0.2
10/12:30pm 27.3 24.3 10.5 35 9.9 WNW 17 28 9 15 1016.2 1012.3 0.2
10/12:00pm 26.3 22.8 8.8 33 9.9 NW 17 20 9 11 1016.5 1012.6 0.2
10/11:30am 26.1 23.8 10.3 37 9.2 NW 13 24 7 13 1016.9 1012.9 0.2
10/11:00am 24.5 22.6 13.1 49 6.9 N 15 26 8 14 1017.2 1013.3 0.2
10/10:30am 23.4 22.0 14.4 57 5.5 NE 15 20 8 11 1017.5 1013.6 0.0
10/10:00am 22.1 21.7 16.1 69 3.8 ENE 13 17 7 9 1017.9 1013.9 0.0
10/09:30am 19.9 19.3 16.7 82 2.0 NE 15 17 8 9 1018.2 1014.3 0.0
10/09:00am 16.4 14.6 15.4 94 0.6 NE 19 22 10 12 1018.2 1014.3 0.0
10/08:39am 14.5 12.3 14.5 100 0.0 NE 19 20 10 11 1018.3 1014.4 0.0
10/08:30am 14.1 12.2 14.1 100 0.0 NE 17 20 9 11 1018.3 1014.4 0.0
10/08:25am 14.1 12.2 14.1 100 0.0 NE 17 20 9 11 1018.3 1014.4 0.0
10/08:00am 13.4 10.9 13.4 100 0.0 NE 19 22 10 12 1018.3 1014.4 0.0
10/07:30am 12.8 10.4 12.8 100 0.0 NE 17 19 9 10 1018.2 1014.3 0.0
10/07:00am 12.5 10.4 12.5 100 0.0 NE 15 19 8 10 1018.0 1014.0 0.0
10/06:30am 12.6 10.6 12.6 100 0.0 NNE 15 17 8 9 1017.8 1013.8 0.0
10/06:00am 13.0 11.5 13.0 100 0.0 NNE 13 17 7 9 1017.6 1013.7 0.0
10/05:30am 11.4 9.8 11.4 100 0.0 NNE 11 13 6 7 1017.8 1013.8 0.0
10/05:00am 9.9 7.8 9.9 100 0.0 NNE 11 13 6 7 1017.9 1013.9 0.0
10/04:30am 10.4 8.9 10.4 100 0.0 NNE 9 11 5 6 1017.9 1013.9 0.0
10/04:00am 9.9 8.2 9.8 99 0.1 NNE 9 11 5 6 1017.9 1013.9 0.0
10/03:30am 11.2 9.9 11.2 100 0.0 NNE 9 11 5 6 1018.1 1014.2 0.0
10/03:11am 11.1 9.7 10.9 99 0.1 N 9 11 5 6 1018.2 1014.3 0.0
10/03:03am 11.0 9.6 10.8 99 0.1 NNE 9 11 5 6 1018.3 1014.4 0.0
10/03:00am 10.6 9.1 10.4 99 0.1 NNE 9 11 5 6 1018.3 1014.4 0.0
10/02:55am 11.0 9.6 10.8 99 0.1 NNE 9 11 5 6 1018.3 1014.4 0.0
10/02:30am 12.1 10.7 12.1 100 0.0 NNE 11 13 6 7 1018.6 1014.7 0.0
10/02:22am 12.1 10.7 12.1 100 0.0 NNE 11 13 6 7 1018.7 1014.8 0.0
10/02:00am 11.9 11.1 11.7 99 0.1 NNE 7 9 4 5 1019.0 1015.0 0.0
10/01:30am 11.8 11.0 11.6 99 0.1 NNE 7 9 4 5 1019.3 1015.4 0.0
10/01:00am 12.7 11.9 11.8 94 0.5 N 7 7 4 4 1019.7 1015.8 0.0
10/12:30am 13.4 13.1 12.6 95 0.5 N 6 7 3 4 1020.0 1016.2 0.0
10/12:00am 13.7 13.7 12.3 91 0.8 N 4 7 2 4 1020.3 1016.4 0.0
 
Date/Time
EDT
Temp
°C
App
Temp
°C
Dew
Point
Rel
Hum
%
Delta-T
°C
Wind Press
QNH
hPa
Press
MSL
hPa
Rain
since 9 am
mm
Dir
 
Spd
km/h
Gust
km/h
Spd
kts
Gust
kts
09/11:30pm 14.3 13.5 12.9 91 0.8 N 9 11 5 6 1020.5 1016.6 0.0
09/11:00pm 15.4 15.3 13.8 90 0.9 N 7 9 4 5 1020.8 1016.9 0.0
09/10:30pm 15.5 15.6 14.0 91 0.9 N 6 7 3 4 1020.9 1017.1 0.0
09/10:00pm 15.6 14.3 13.8 89 1.1 NNE 13 17 7 9 1020.8 1016.9 0.0
09/09:30pm 16.4 14.8 13.9 85 1.5 NE 15 19 8 10 1020.8 1016.9 0.0
09/09:00pm 16.7 14.7 13.8 83 1.7 NNE 17 22 9 12 1020.6 1016.7 0.0
09/08:30pm 17.5 15.0 13.4 77 2.4 NE 19 20 10 11 1020.4 1016.5 0.0
09/08:00pm 18.8 16.3 13.6 72 3.1 NE 19 24 10 13 1020.4 1016.5 0.0
09/07:30pm 20.3 17.3 13.7 66 4.0 NE 22 30 12 16 1020.0 1016.2 0.0
09/07:00pm 21.7 18.0 12.8 57 5.3 ENE 24 32 13 17 1019.8 1015.9 0.0
09/06:30pm 23.2 19.6 13.1 53 6.1 ENE 24 30 13 16 1019.5 1015.6 0.0
09/06:00pm 24.0 19.6 11.7 46 7.2 ENE 26 35 14 19 1019.5 1015.6 0.0
09/05:30pm 26.4 25.8 10.5 37 9.3 WSW 4 9 2 5 1019.4 1015.5 0.0
09/05:00pm 26.5 25.2 12.5 41 8.4 SSW 11 15 6 8 1019.6 1015.7 0.0
09/04:30pm 27.3 27.3 12.5 40 9.0 WSW 4 9 2 5 1019.8 1015.9 0.0
09/04:00pm 26.0 24.8 9.4 35 9.5 ENE 6 13 3 7 1020.3 1016.4 0.0
09/03:30pm 25.6 23.9 9.8 37 9.1 ESE 9 17 5 9 1020.7 1016.8 0.0
09/03:00pm 25.3 24.0 10.0 38 8.8 WSW 7 11 4 6 1021.1 1017.3 0.0
09/02:30pm 25.3 24.2 11.8 43 8.0 E 9 24 5 13 1021.6 1017.7 0.0
09/02:00pm 24.4 22.7 8.4 36 8.9 NE 7 17 4 9 1021.9 1018.1 0.0
09/01:30pm 23.8 21.6 9.4 40 8.2 E 11 19 6 10 1022.2 1018.4 0.0
09/01:00pm 22.8 20.5 10.6 46 7.0 NNE 13 22 7 12 1022.6 1018.7 0.0
09/12:30pm 22.2 20.7 11.9 52 6.0 NNE 11 19 6 10 1022.9 1019.1 0.0
09/12:00pm 21.3 19.6 11.3 53 5.8 NE 11 17 6 9 1023.3 1019.5 0.0
09/11:30am 20.4 18.7 9.9 51 5.9 NE 9 15 5 8 1023.7 1019.8 0.0
09/11:00am 19.3 17.7 10.3 56 5.0 ENE 9 17 5 9 1024.0 1020.2 0.0
09/10:30am 18.8 18.2 11.6 63 4.1 NE 6 13 3 7 1024.1 1020.3 0.0
09/10:00am 18.1 17.7 12.3 69 3.4 N 6 9 3 5 1024.2 1020.4 0.0
09/09:30am 16.8 16.8 12.3 75 2.6 WNW 4 9 2 5 1024.3 1020.5 0.0
09/09:20am 16.3 15.9 12.5 78 2.2 SW 6 7 3 4 1024.3 1020.5 0.0
09/09:00am 15.2 15.4 11.8 80 1.9 W 2 7 1 4 1024.3 1020.5 0.0
09/08:30am 15.9 16.6 13.4 85 1.5 WSW 2 9 1 5 1024.2 1020.4 0.0
09/08:00am 14.2 15.4 13.9 98 0.2 CALM 0 0 0 0 1024.2 1020.4 0.0
09/07:44am 13.7 14.8 13.5 99 0.1 CALM 0 0 0 0 1024.0 1020.2 0.0
09/07:30am 13.0 13.9 12.8 99 0.1 CALM 0 0 0 0 1023.9 1020.1 0.0
09/07:05am 12.5 11.9 12.3 99 0.1 WSW 7 9 4 5 1023.8 1019.9 0.0
09/07:00am 12.4 11.8 12.2 99 0.1 WSW 7 9 4 5 1023.8 1019.9 0.0
09/06:33am 12.8 12.5 12.6 99 0.1 SW 6 7 3 4 1023.4 1019.6 0.0
09/06:30am 12.6 12.2 12.4 99 0.1 SSW 6 9 3 5 1023.3 1019.5 0.0
09/06:17am 12.9 12.6 12.7 99 0.1 S 6 9 3 5 1023.2 1019.4 0.0
09/06:08am 13.3 14.3 13.1 99 0.1 CALM 0 0 0 0 1023.2 1019.4 0.0
09/06:00am 13.4 14.5 13.4 100 0.0 CALM 0 0 0 0 1023.2 1019.4 0.0
09/05:56am 13.4 14.5 13.4 100 0.0 CALM 0 0 0 0 1023.2 1019.4 0.0
09/05:54am 13.5 14.6 13.5 100 0.0 CALM 0 0 0 0 1023.1 1019.3 0.0
09/05:37am 13.5 13.5 13.5 100 0.0 SW 6 7 3 4 1023.0 1019.2 0.0
09/05:30am 13.4 13.3 13.4 100 0.0 SW 6 7 3 4 1023.0 1019.2 0.0
09/05:00am 13.0 13.9 13.0 100 0.0 CALM 0 0 0 0 1022.8 1018.9 0.0
09/04:30am 12.5 13.3 12.5 100 0.0 CALM 0 0 0 0 1022.7 1018.8 0.0
09/04:11am 12.0 12.6 12.0 100 0.0 CALM 0 0 0 0 1022.7 1018.8 0.0
09/04:00am 11.7 12.2 11.7 100 0.0 CALM 0 0 0 0 1022.6 1018.7 0.0
09/03:30am 10.3 10.4 10.3 100 0.0 CALM 0 0 0 0 1022.8 1018.9 0.0
09/03:00am 9.7 8.5 9.6 99 0.1 E 6 7 3 4 1022.8 1018.9 0.0
09/02:59am 9.6 8.8 9.5 99 0.1 E 4 7 2 4 1022.8 1018.9 0.0
09/02:53am 9.6 9.5 9.5 99 0.1 CALM 0 7 0 4 1022.9 1019.1 0.0
09/02:30am 10.1 10.2 10.0 99 0.1 CALM 0 0 0 0 1023.0 1019.2 0.0
09/02:29am 10.2 10.3 10.1 99 0.1 CALM 0 0 0 0 1023.0 1019.2 0.0
09/02:00am 10.7 10.9 10.5 99 0.1 CALM 0 0 0 0 1023.2 1019.4 0.0
09/01:30am 11.7 12.2 11.5 99 0.1 CALM 0 0 0 0 1023.3 1019.5 0.0
09/01:00am 11.7 12.0 10.8 94 0.5 CALM 0 0 0 0 1023.7 1019.8 0.0
09/12:49am 12.9 13.7 12.6 98 0.2 CALM 0 0 0 0 1023.8 1019.9 0.0
09/12:33am 13.7 14.2 12.9 95 0.5 SSE 2 7 1 4 1023.9 1020.1 0.0
09/12:30am 13.6 13.6 12.5 93 0.6 SSE 4 7 2 4 1023.9 1020.1 0.0
09/12:00am 14.5 15.5 14.3 99 0.1 NW 2 7 1 4 1024.0 1020.2 0.0
 
Date/Time
EDT
Temp
°C
App
Temp
°C
Dew
Point
Rel
Hum
%
Delta-T
°C
Wind Press
QNH
hPa
Press
MSL
hPa
Rain
since 9 am
mm
Dir
 
Spd
km/h
Gust
km/h
Spd
kts
Gust
kts
08/11:57pm 14.2 14.6 13.7 97 0.3 NW 4 9 2 5 1024.0 1020.2 0.0

Other Formats:

Comma delimited format used in spreadsheet applications
http://www.bom.gov.au/fwo/IDN60801/IDN60801.94921.axf

JavaScript Object Notation format (JSON) in row-major order
http://www.bom.gov.au/fwo/IDN60801/IDN60801.94921.json